createdAt,value
2019-03-29T00:01:36.948Z,102749.92
2019-03-29T00:03:44.661Z,102740.34
2019-03-29T00:05:50.931Z,102734.58
2019-03-29T00:07:57.300Z,102741.86
2019-03-29T00:10:03.876Z,102741.35
2019-03-29T00:12:10.419Z,102751.20
2019-03-29T00:14:17.583Z,102753.42
2019-03-29T00:16:24.174Z,102753.05
2019-03-29T00:18:30.737Z,102749.64
2019-03-29T00:20:37.518Z,102750.55
2019-03-29T00:22:45.553Z,102740.95
2019-03-29T00:24:52.183Z,102747.80
2019-03-29T00:26:59.561Z,102747.80
2019-03-29T00:29:06.144Z,102745.33
2019-03-29T00:31:12.449Z,102741.58
2019-03-29T00:33:19.966Z,102739.53
2019-03-29T00:35:26.963Z,102744.45
2019-03-29T00:37:33.540Z,102737.57
2019-03-29T00:39:40.319Z,102740.30
2019-03-29T00:41:47.472Z,102743.51
2019-03-29T00:43:54.171Z,102741.44
2019-03-29T00:46:01.422Z,102742.48
2019-03-29T00:48:07.788Z,102738.72
2019-03-29T00:50:14.458Z,102740.14
2019-03-29T00:52:20.820Z,102737.61
2019-03-29T00:54:28.836Z,102735.12
2019-03-29T00:56:35.527Z,102739.09
2019-03-29T00:58:42.788Z,102734.42
2019-03-29T01:00:49.441Z,102731.87
2019-03-29T01:02:56.847Z,102726.62
2019-03-29T01:05:04.132Z,102728.82
2019-03-29T01:09:25.555Z,102724.97
2019-03-29T01:11:32.633Z,102718.92
2019-03-29T01:13:39.227Z,102721.17
2019-03-29T01:15:45.858Z,102719.06
2019-03-29T01:17:53.047Z,102715.22
2019-03-29T01:20:00.649Z,102718.76
2019-03-29T01:22:07.302Z,102713.98
2019-03-29T01:24:14.513Z,102718.36
2019-03-29T01:26:21.171Z,102722.74
2019-03-29T01:28:27.932Z,102721.42
2019-03-29T01:30:34.597Z,102723.61
2019-03-29T01:32:41.397Z,102721.91
2019-03-29T01:34:48.040Z,102714.51
2019-03-29T01:36:54.505Z,102713.20
2019-03-29T01:39:00.981Z,102711.83
2019-03-29T01:41:08.484Z,102705.14
2019-03-29T01:43:15.220Z,102701.05
2019-03-29T01:45:21.597Z,102702.59
2019-03-29T01:47:28.047Z,102705.47
2019-03-29T01:49:34.823Z,102698.77
2019-03-29T01:51:41.300Z,102695.10
2019-03-29T01:53:47.759Z,102692.88
2019-03-29T01:55:54.416Z,102697.27
2019-03-29T01:58:00.894Z,102694.33
2019-03-29T02:00:09.221Z,102697.52
2019-03-29T02:02:15.968Z,102693.33
2019-03-29T02:04:22.332Z,102696.56
2019-03-29T02:06:29.005Z,102702.00
2019-03-29T02:10:46.957Z,102711.83
2019-03-29T02:12:53.329Z,102719.36
2019-03-29T02:14:59.878Z,102710.77
2019-03-29T02:17:06.262Z,102712.55
2019-03-29T02:19:13.028Z,102709.13
2019-03-29T02:21:19.283Z,102716.10
2019-03-29T02:23:26.056Z,102717.88
2019-03-29T02:25:32.830Z,102714.86
2019-03-29T02:27:39.962Z,102712.26
2019-03-29T02:29:47.713Z,102716.57
2019-03-29T02:31:53.982Z,102713.97
2019-03-29T02:34:00.634Z,102716.94
2019-03-29T02:36:07.209Z,102717.34
2019-03-29T02:38:14.095Z,102712.14
2019-03-29T02:40:22.634Z,102706.88
2019-03-29T02:42:28.873Z,102709.11
2019-03-29T02:44:36.437Z,102708.70
2019-03-29T02:46:42.695Z,102712.26
2019-03-29T02:48:49.239Z,102712.67
2019-03-29T02:50:55.747Z,102712.67
2019-03-29T02:53:02.190Z,102707.92
2019-03-29T02:55:10.109Z,102694.08
2019-03-29T02:57:16.473Z,102689.39
2019-03-29T02:59:23.019Z,102684.70
2019-03-29T03:01:29.803Z,102673.92
2019-03-29T03:03:36.261Z,102679.66
2019-03-29T03:05:42.849Z,102682.78
2019-03-29T03:07:49.304Z,102677.20
2019-03-29T03:09:56.076Z,102676.01
2019-03-29T03:12:03.250Z,102682.16
2019-03-29T03:14:09.804Z,102680.91
2019-03-29T03:16:16.577Z,102677.08
2019-03-29T03:18:23.047Z,102679.33
2019-03-29T03:20:29.508Z,102681.61
2019-03-29T03:22:36.189Z,102677.28
2019-03-29T03:24:44.184Z,102671.23
2019-03-29T03:26:51.047Z,102676.50
2019-03-29T03:28:57.519Z,102678.70
2019-03-29T03:31:05.217Z,102684.89
2019-03-29T03:33:11.906Z,102686.66
2019-03-29T03:35:19.690Z,102687.13
2019-03-29T03:37:26.155Z,102681.55
2019-03-29T03:39:32.827Z,102672.04
2019-03-29T03:41:39.618Z,102682.06
2019-03-29T03:43:46.354Z,102683.45
2019-03-29T03:45:52.642Z,102689.14
2019-03-29T03:47:59.613Z,102687.88
2019-03-29T03:50:08.511Z,102691.05
2019-03-29T03:52:15.079Z,102687.64
2019-03-29T03:54:21.754Z,102685.54
2019-03-29T03:56:29.833Z,102684.28
2019-03-29T03:58:36.704Z,102683.91
2019-03-29T04:00:53.662Z,102674.39
2019-03-29T04:03:00.318Z,102683.99
2019-03-29T04:05:08.690Z,102676.20
2019-03-29T04:07:14.980Z,102682.77
2019-03-29T04:09:21.447Z,102678.01
2019-03-29T04:11:27.703Z,102681.13
2019-03-29T04:13:34.270Z,102686.39
2019-03-29T04:15:44.129Z,102686.89
2019-03-29T04:17:50.701Z,102688.24
2019-03-29T04:19:57.266Z,102689.59
2019-03-29T04:22:03.736Z,102686.12
2019-03-29T04:24:10.281Z,102685.25
2019-03-29T04:26:17.051Z,102678.34
2019-03-29T04:28:24.139Z,102679.68
2019-03-29T04:30:30.828Z,102683.59
2019-03-29T04:32:38.488Z,102677.07
2019-03-29T04:34:46.079Z,102683.22
2019-03-29T04:36:54.213Z,102679.72
2019-03-29T04:39:00.685Z,102679.72
2019-03-29T04:41:07.838Z,102681.48
2019-03-29T04:43:14.508Z,102678.03
2019-03-29T04:45:20.881Z,102672.80
2019-03-29T04:47:28.683Z,102675.03
2019-03-29T04:49:35.048Z,102675.42
2019-03-29T04:51:41.826Z,102680.64
2019-03-29T04:53:48.369Z,102671.11
2019-03-29T04:55:55.056Z,102679.45
2019-03-29T04:58:04.006Z,102680.33
2019-03-29T05:00:12.248Z,102679.52
2019-03-29T05:02:20.065Z,102675.64
2019-03-29T05:04:27.285Z,102682.23
2019-03-29T05:06:33.624Z,102688.84
2019-03-29T05:08:40.405Z,102686.69
2019-03-29T05:10:46.669Z,102690.64
2019-03-29T05:12:53.219Z,102692.45
2019-03-29T05:14:59.804Z,102696.41
2019-03-29T05:17:06.775Z,102701.23
2019-03-29T05:19:13.145Z,102698.23
2019-03-29T05:21:19.562Z,102694.37
2019-03-29T05:23:26.155Z,102696.20
2019-03-29T05:25:32.835Z,102701.92
2019-03-29T05:27:39.105Z,102702.38
2019-03-29T05:29:45.777Z,102705.88
2019-03-29T05:31:53.704Z,102708.06
2019-03-29T05:34:00.545Z,102706.33
2019-03-29T05:36:07.315Z,102706.79
2019-03-29T05:38:14.289Z,102705.09
2019-03-29T05:40:33.986Z,102708.16
2019-03-29T05:42:29.382Z,102716.89
2019-03-29T05:44:35.943Z,102713.88
2019-03-29T05:46:43.918Z,102712.99
2019-03-29T05:48:50.175Z,102714.79
2019-03-29T05:50:56.775Z,102712.62
2019-03-29T05:53:05.069Z,102707.42
2019-03-29T05:55:12.464Z,102711.83
2019-03-29T05:57:19.037Z,102714.02
2019-03-29T05:59:25.589Z,102713.17
2019-03-29T06:01:32.064Z,102714.50
2019-03-29T06:03:38.405Z,102704.92
2019-03-29T06:05:44.892Z,102708.88
2019-03-29T06:07:51.964Z,102705.88
2019-03-29T06:09:58.234Z,102715.09
2019-03-29T06:12:05.066Z,102708.60
2019-03-29T06:14:11.364Z,102702.59
2019-03-29T06:16:18.544Z,102693.91
2019-03-29T06:18:25.115Z,102693.47
2019-03-29T06:20:32.084Z,102693.91
2019-03-29T06:22:38.339Z,102692.19
2019-03-29T06:24:44.908Z,102685.28
2019-03-29T06:26:51.174Z,102683.11
2019-03-29T06:28:58.155Z,102679.25
2019-03-29T06:31:04.764Z,102678.81
2019-03-29T06:33:13.326Z,102672.30
2019-03-29T06:35:19.903Z,102675.06
2019-03-29T06:37:27.308Z,102665.91
2019-03-29T06:39:34.327Z,102667.73
2019-03-29T06:41:40.936Z,102658.58
2019-03-29T06:43:47.593Z,102659.03
2019-03-29T06:45:54.266Z,102664.69
2019-03-29T06:48:00.521Z,102660.34
2019-03-29T06:50:08.879Z,102672.14
2019-03-29T06:52:15.716Z,102671.27
2019-03-29T06:54:22.384Z,102661.30
2019-03-29T06:56:28.995Z,102660.92
2019-03-29T06:58:35.306Z,102665.72
2019-03-29T07:00:41.853Z,102664.88
2019-03-29T07:02:48.130Z,102670.16
2019-03-29T07:04:54.681Z,102668.40
2019-03-29T07:07:01.075Z,102667.95
2019-03-29T07:09:08.474Z,102676.27
2019-03-29T07:11:17.654Z,102675.34
2019-03-29T07:13:24.137Z,102664.47
2019-03-29T07:15:30.504Z,102663.17
2019-03-29T07:17:37.092Z,102664.48
2019-03-29T07:19:43.315Z,102657.48
2019-03-29T07:21:50.004Z,102647.45
2019-03-29T07:23:56.283Z,102648.33
2019-03-29T07:26:04.373Z,102645.72
2019-03-29T07:28:10.863Z,102654.05
2019-03-29T07:30:19.473Z,102654.91
2019-03-29T07:32:26.225Z,102654.05
2019-03-29T07:34:32.703Z,102652.72
2019-03-29T07:36:39.051Z,102655.30
2019-03-29T07:38:45.726Z,102652.69
2019-03-29T07:40:52.086Z,102649.16
2019-03-29T07:42:58.755Z,102657.48
2019-03-29T07:45:10.267Z,102657.91
2019-03-29T07:47:15.376Z,102659.23
2019-03-29T07:49:22.138Z,102653.06
2019-03-29T07:51:28.505Z,102649.56
2019-03-29T07:53:35.388Z,102646.92
2019-03-29T07:55:41.837Z,102641.27
2019-03-29T07:57:48.312Z,102643.00
2019-03-29T08:02:10.473Z,102635.42
2019-03-29T08:04:16.822Z,102634.48
2019-03-29T08:06:24.008Z,102636.59
2019-03-29T08:08:34.256Z,102645.34
2019-03-29T08:10:40.326Z,102638.33
2019-03-29T08:12:46.576Z,102636.88
2019-03-29T08:14:53.345Z,102635.08
2019-03-29T08:16:59.823Z,102640.05
2019-03-29T08:19:07.090Z,102636.41
2019-03-29T08:21:13.668Z,102636.52
2019-03-29T08:23:20.046Z,102636.93
2019-03-29T08:25:27.417Z,102630.16
2019-03-29T08:27:33.886Z,102632.96
2019-03-29T08:29:42.936Z,102632.33
2019-03-29T08:31:49.492Z,102640.83
2019-03-29T08:33:57.892Z,102639.92
2019-03-29T08:36:04.550Z,102634.20
2019-03-29T08:38:12.810Z,102639.84
2019-03-29T08:40:19.222Z,102639.18
2019-03-29T08:42:26.095Z,102644.94
2019-03-29T08:44:32.467Z,102645.02
2019-03-29T08:46:38.922Z,102638.41
2019-03-29T08:48:45.162Z,102639.31
2019-03-29T08:50:51.463Z,102644.45
2019-03-29T08:52:58.023Z,102647.06
2019-03-29T08:55:05.776Z,102648.92
2019-03-29T08:57:12.383Z,102648.09
2019-03-29T08:59:18.932Z,102644.22
2019-03-29T09:01:26.338Z,102636.16
2019-03-29T09:03:33.204Z,102641.27
2019-03-29T09:05:42.026Z,102639.25
2019-03-29T09:07:50.036Z,102634.34
2019-03-29T09:09:56.266Z,102635.92
2019-03-29T09:12:13.837Z,102642.08
2019-03-29T09:14:10.857Z,102639.55
2019-03-29T09:16:17.712Z,102634.75
2019-03-29T09:18:25.902Z,102638.47
2019-03-29T09:20:34.434Z,102641.04
2019-03-29T09:22:39.994Z,102637.05
2019-03-29T09:24:48.077Z,102641.95
2019-03-29T09:26:54.443Z,102637.63
2019-03-29T09:29:01.337Z,102639.06
2019-03-29T09:31:08.521Z,102639.84
2019-03-29T09:33:15.497Z,102642.58
2019-03-29T09:35:22.055Z,102643.39
2019-03-29T09:37:28.726Z,102644.62
2019-03-29T09:39:35.286Z,102650.45
2019-03-29T09:41:42.165Z,102638.09
2019-03-29T09:43:48.432Z,102640.26
2019-03-29T09:45:55.002Z,102638.84
2019-03-29T09:48:01.449Z,102629.55
2019-03-29T09:50:10.584Z,102630.47
2019-03-29T09:52:17.365Z,102635.16
2019-03-29T09:54:23.728Z,102635.05
2019-03-29T09:56:38.698Z,102636.17
2019-03-29T09:58:39.748Z,102641.05
2019-03-29T10:00:46.290Z,102626.66
2019-03-29T10:02:54.203Z,102634.73
2019-03-29T10:05:00.758Z,102632.45
2019-03-29T10:07:07.137Z,102636.05
2019-03-29T10:09:13.796Z,102633.42
2019-03-29T10:11:22.051Z,102633.42
2019-03-29T10:13:28.675Z,102634.45
2019-03-29T10:15:35.135Z,102628.53
2019-03-29T10:17:41.490Z,102623.64
2019-03-29T10:19:49.864Z,102621.75
2019-03-29T10:21:56.198Z,102621.50
2019-03-29T10:24:02.833Z,102613.09
2019-03-29T10:26:09.325Z,102628.34
2019-03-29T10:28:15.888Z,102628.00
2019-03-29T10:30:41.285Z,102631.35
2019-03-29T10:32:47.527Z,102626.03
2019-03-29T10:34:54.103Z,102630.25
2019-03-29T10:37:00.482Z,102615.34
2019-03-29T10:39:12.811Z,102614.80
2019-03-29T10:41:22.571Z,102609.52
2019-03-29T10:43:27.635Z,102617.83
2019-03-29T10:45:39.486Z,102611.91
2019-03-29T10:47:43.981Z,102606.59
2019-03-29T10:49:50.435Z,102598.43
2019-03-29T10:51:56.987Z,102602.72
2019-03-29T10:54:03.455Z,102594.36
2019-03-29T10:56:09.925Z,102601.25
2019-03-29T10:58:16.488Z,102590.45
2019-03-29T11:00:38.707Z,102592.26
2019-03-29T11:02:45.084Z,102588.28
2019-03-29T11:04:51.659Z,102586.83
2019-03-29T11:06:58.503Z,102579.95
2019-03-29T11:09:09.004Z,102574.62
2019-03-29T11:11:15.452Z,102574.52
2019-03-29T11:13:22.005Z,102566.11
2019-03-29T11:15:28.467Z,102565.95
2019-03-29T11:17:35.252Z,102555.88
2019-03-29T11:19:41.713Z,102556.85
2019-03-29T11:21:48.511Z,102561.22
2019-03-29T11:23:55.875Z,102552.66
2019-03-29T11:26:02.563Z,102559.33
2019-03-29T11:28:09.323Z,102553.92
2019-03-29T11:30:15.888Z,102558.02
2019-03-29T11:32:22.449Z,102563.06
2019-03-29T11:34:29.022Z,102556.64
2019-03-29T11:36:35.496Z,102555.41
2019-03-29T11:38:41.961Z,102552.63
2019-03-29T11:40:48.646Z,102553.16
2019-03-29T11:42:55.184Z,102547.84
2019-03-29T11:45:01.969Z,102548.87
2019-03-29T11:47:08.668Z,102542.31
2019-03-29T11:49:15.408Z,102547.15
2019-03-29T11:51:21.996Z,102549.49
2019-03-29T11:53:28.551Z,102553.50
2019-03-29T11:55:34.898Z,102550.59
2019-03-29T11:57:42.739Z,102556.34
2019-03-29T11:59:49.174Z,102554.11
2019-03-29T12:01:55.439Z,102560.22
2019-03-29T12:04:03.641Z,102548.75
2019-03-29T12:06:10.103Z,102555.30
2019-03-29T12:08:16.562Z,102550.91
2019-03-29T12:10:23.040Z,102548.35
2019-03-29T12:12:29.489Z,102544.36
2019-03-29T12:14:35.858Z,102540.48
2019-03-29T12:16:42.657Z,102541.37
2019-03-29T12:18:49.103Z,102536.48
2019-03-29T12:20:55.987Z,102533.50
2019-03-29T12:23:03.200Z,102535.73
2019-03-29T12:25:10.740Z,102530.55
2019-03-29T12:27:17.119Z,102529.70
2019-03-29T12:31:37.609Z,102523.68
2019-03-29T12:33:44.188Z,102526.28
2019-03-29T12:35:52.868Z,102526.23
2019-03-29T12:37:59.339Z,102524.56
2019-03-29T12:40:09.925Z,102528.52
2019-03-29T12:42:16.910Z,102522.00
2019-03-29T12:44:23.261Z,102525.08
2019-03-29T12:46:32.472Z,102517.25
2019-03-29T12:48:38.877Z,102520.73
2019-03-29T12:50:45.316Z,102517.14
2019-03-29T12:52:51.879Z,102514.02
2019-03-29T12:54:58.150Z,102509.55
2019-03-29T12:57:06.979Z,102514.45
2019-03-29T12:59:13.430Z,102505.27
2019-03-29T13:01:20.021Z,102504.75
2019-03-29T13:03:28.209Z,102501.20
2019-03-29T13:05:34.684Z,102497.11
2019-03-29T13:07:41.239Z,102494.44
2019-03-29T13:09:47.812Z,102487.87
2019-03-29T13:11:54.673Z,102492.23
2019-03-29T13:14:10.237Z,102489.95
2019-03-29T13:16:09.269Z,102488.94
2019-03-29T13:18:17.256Z,102488.38
2019-03-29T13:20:23.610Z,102491.42
2019-03-29T13:22:30.389Z,102484.82
2019-03-29T13:24:36.952Z,102481.69
2019-03-29T13:26:43.429Z,102489.02
2019-03-29T13:28:49.996Z,102475.49
2019-03-29T13:30:56.654Z,102480.23
2019-03-29T13:33:03.332Z,102480.32
2019-03-29T13:35:10.423Z,102475.92
2019-03-29T13:37:16.751Z,102477.14
2019-03-29T13:39:23.450Z,102477.91
2019-03-29T13:41:29.708Z,102480.12
2019-03-29T13:43:36.990Z,102476.16
2019-03-29T13:45:43.570Z,102471.00
2019-03-29T13:47:51.853Z,102471.92
2019-03-29T13:49:58.741Z,102465.37
2019-03-29T13:52:05.260Z,102468.00
2019-03-29T13:54:11.769Z,102468.11
2019-03-29T13:56:19.801Z,102463.78
2019-03-29T13:58:26.129Z,102462.90
2019-03-29T14:00:32.605Z,102453.23
2019-03-29T14:02:38.855Z,102451.95
2019-03-29T14:04:45.209Z,102449.20
2019-03-29T14:06:51.894Z,102450.33
2019-03-29T14:09:01.210Z,102448.84
2019-03-29T14:11:09.440Z,102445.33
2019-03-29T14:13:15.972Z,102452.46
2019-03-29T14:15:24.084Z,102436.63
2019-03-29T14:17:31.104Z,102435.38
2019-03-29T14:19:37.651Z,102434.48
2019-03-29T14:21:45.431Z,102430.52
2019-03-29T14:23:51.791Z,102439.05
2019-03-29T14:26:00.743Z,102429.86
2019-03-29T14:28:10.482Z,102422.42
2019-03-29T14:30:17.228Z,102433.11
2019-03-29T14:32:25.043Z,102429.55
2019-03-29T14:34:31.500Z,102426.02
2019-03-29T14:36:38.895Z,102430.43
2019-03-29T14:38:45.561Z,102428.72
2019-03-29T14:40:51.909Z,102424.85
2019-03-29T14:42:58.871Z,102423.20
2019-03-29T14:45:08.354Z,102417.19
2019-03-29T14:47:14.787Z,102413.33
2019-03-29T14:49:21.750Z,102414.26
2019-03-29T14:51:28.131Z,102411.18
2019-03-29T14:53:34.620Z,102416.02
2019-03-29T14:55:41.470Z,102410.35
2019-03-29T14:57:48.041Z,102402.48
2019-03-29T14:59:55.435Z,102404.59
2019-03-29T15:02:01.690Z,102398.40
2019-03-29T15:04:08.661Z,102402.34
2019-03-29T15:06:15.021Z,102401.03
2019-03-29T15:08:21.797Z,102395.31
2019-03-29T15:10:31.849Z,102400.11
2019-03-29T15:12:38.710Z,102398.02
2019-03-29T15:14:45.387Z,102393.70
2019-03-29T15:16:52.489Z,102392.43
2019-03-29T15:18:58.744Z,102392.92
2019-03-29T15:21:05.981Z,102392.96
2019-03-29T15:23:21.380Z,102389.94
2019-03-29T15:25:40.601Z,102393.89
2019-03-29T15:27:53.270Z,102386.42
2019-03-29T15:29:59.938Z,102384.76
2019-03-29T15:32:07.017Z,102379.88
2019-03-29T15:34:13.685Z,102374.17
2019-03-29T15:36:20.263Z,102374.52
2019-03-29T15:38:26.924Z,102367.84
2019-03-29T15:40:33.805Z,102368.71
2019-03-29T15:42:40.890Z,102366.47
2019-03-29T15:44:47.795Z,102359.00
2019-03-29T15:46:54.714Z,102359.94
2019-03-29T15:49:01.304Z,102354.71
2019-03-29T15:51:07.658Z,102352.13
2019-03-29T15:53:14.507Z,102349.53
2019-03-29T15:55:20.891Z,102348.13
2019-03-29T15:57:28.357Z,102343.73
2019-03-29T15:59:38.236Z,102348.13
2019-03-29T16:01:54.520Z,102351.20
2019-03-29T16:04:01.295Z,102345.88
2019-03-29T16:06:07.864Z,102340.70
2019-03-29T16:08:14.404Z,102341.53
2019-03-29T16:10:21.107Z,102347.58
2019-03-29T16:12:27.716Z,102336.45
2019-03-29T16:14:34.246Z,102339.09
2019-03-29T16:16:40.838Z,102330.78
2019-03-29T16:18:47.264Z,102329.88
2019-03-29T16:20:53.945Z,102331.33
2019-03-29T16:23:00.305Z,102325.52
2019-03-29T16:25:08.794Z,102319.14
2019-03-29T16:27:15.374Z,102319.23
2019-03-29T16:29:21.827Z,102323.20
2019-03-29T16:31:28.295Z,102320.59
2019-03-29T16:33:35.071Z,102325.96
2019-03-29T16:35:41.349Z,102321.71
2019-03-29T16:37:56.934Z,102319.13
2019-03-29T16:39:56.611Z,102318.77
2019-03-29T16:42:03.069Z,102314.43
2019-03-29T16:44:09.391Z,102313.77
2019-03-29T16:46:18.082Z,102310.69
2019-03-29T16:48:24.425Z,102312.35
2019-03-29T16:50:30.805Z,102315.13
2019-03-29T16:52:37.174Z,102307.36
2019-03-29T16:54:44.032Z,102308.29
2019-03-29T16:56:50.790Z,102305.74
2019-03-29T16:59:18.504Z,102309.73
2019-03-29T17:01:25.275Z,102302.32
2019-03-29T17:03:33.771Z,102300.65
2019-03-29T17:05:43.173Z,102302.05
2019-03-29T17:07:49.954Z,102293.28
2019-03-29T17:09:57.854Z,102295.95
2019-03-29T17:12:04.594Z,102290.68
2019-03-29T17:14:11.385Z,102294.19
2019-03-29T17:16:29.903Z,102289.33
2019-03-29T17:18:29.583Z,102289.28
2019-03-29T17:20:36.522Z,102288.48
2019-03-29T17:22:44.029Z,102289.85
2019-03-29T17:24:56.776Z,102287.70
2019-03-29T17:26:59.914Z,102291.69
2019-03-29T17:29:08.023Z,102287.78
2019-03-29T17:31:16.775Z,102295.71
2019-03-29T17:33:23.206Z,102291.84
2019-03-29T17:35:30.045Z,102294.87
2019-03-29T17:37:36.587Z,102298.86
2019-03-29T17:39:43.904Z,102291.88
2019-03-29T17:41:51.004Z,102305.48
2019-03-29T17:43:57.483Z,102294.07
2019-03-29T17:46:15.404Z,102300.21
2019-03-29T17:48:12.978Z,102299.81
2019-03-29T17:50:19.755Z,102302.04
2019-03-29T17:52:26.739Z,102301.20
2019-03-29T17:54:34.245Z,102296.81
2019-03-29T17:56:41.001Z,102306.50
2019-03-29T17:58:47.784Z,102310.88
2019-03-29T18:00:54.769Z,102309.16
2019-03-29T18:03:01.650Z,102311.34
2019-03-29T18:05:09.464Z,102309.63
2019-03-29T18:07:16.591Z,102308.75
2019-03-29T18:09:23.403Z,102315.77
2019-03-29T18:11:30.294Z,102313.14
2019-03-29T18:13:39.226Z,102315.36
2019-03-29T18:15:46.324Z,102309.66
2019-03-29T18:17:53.501Z,102308.79
2019-03-29T18:20:00.095Z,102314.08
2019-03-29T18:22:08.723Z,102304.87
2019-03-29T18:24:15.336Z,102311.45
2019-03-29T18:26:23.006Z,102315.84
2019-03-29T18:28:30.247Z,102313.23
2019-03-29T18:30:41.616Z,102315.43
2019-03-29T18:32:49.994Z,102320.25
2019-03-29T18:34:59.065Z,102317.22
2019-03-29T18:37:07.187Z,102313.70
2019-03-29T18:39:14.092Z,102321.19
2019-03-29T18:41:21.185Z,102315.05
2019-03-29T18:43:28.225Z,102321.19
2019-03-29T18:45:35.075Z,102326.48
2019-03-29T18:47:44.024Z,102326.92
2019-03-29T18:49:50.746Z,102326.48
2019-03-29T18:51:57.664Z,102328.70
2019-03-29T18:54:04.461Z,102325.19
2019-03-29T18:56:11.353Z,102325.66
2019-03-29T18:58:21.104Z,102324.78
2019-03-29T19:00:37.507Z,102324.34
2019-03-29T19:02:44.102Z,102330.95
2019-03-29T19:04:51.346Z,102327.01
2019-03-29T19:06:58.091Z,102327.00
2019-03-29T19:09:07.055Z,102322.22
2019-03-29T19:11:14.124Z,102318.27
2019-03-29T19:13:22.975Z,102317.83
2019-03-29T19:15:30.013Z,102316.08
2019-03-29T19:17:36.689Z,102311.27
2019-03-29T19:19:43.635Z,102315.20
2019-03-29T19:21:50.512Z,102313.92
2019-03-29T19:23:57.694Z,102316.55
2019-03-29T19:26:05.037Z,102319.61
2019-03-29T19:28:12.525Z,102313.48
2019-03-29T19:30:20.674Z,102319.17
2019-03-29T19:32:28.025Z,102321.80
2019-03-29T19:34:34.946Z,102316.14
2019-03-29T19:36:44.820Z,102316.58
2019-03-29T19:38:51.705Z,102317.92
2019-03-29T19:40:58.954Z,102318.36
2019-03-29T19:43:06.399Z,102318.80
2019-03-29T19:45:13.795Z,102319.23
2019-03-29T19:47:20.735Z,102320.58
2019-03-29T19:49:27.569Z,102314.88
2019-03-29T19:51:34.338Z,102314.00
2019-03-29T19:53:41.440Z,102311.84
2019-03-29T19:55:49.816Z,102308.78
2019-03-29T19:57:57.009Z,102307.87
2019-03-29T20:00:07.935Z,102310.97
2019-03-29T20:02:21.959Z,102314.47
2019-03-29T20:04:30.102Z,102308.78
2019-03-29T20:06:37.605Z,102313.16
2019-03-29T20:08:44.122Z,102307.93
2019-03-29T20:10:51.019Z,102312.31
2019-03-29T20:12:59.275Z,102302.23
2019-03-29T20:15:12.274Z,102303.98
2019-03-29T20:17:27.381Z,102306.64
2019-03-29T20:19:28.522Z,102300.50
2019-03-29T20:21:35.835Z,102297.00
2019-03-29T20:23:43.436Z,102295.69
2019-03-29T20:25:51.642Z,102287.84
2019-03-29T20:28:00.274Z,102291.80
2019-03-29T20:30:08.785Z,102282.17
2019-03-29T20:32:16.716Z,102287.02
2019-03-29T20:34:23.604Z,102287.89
2019-03-29T20:36:30.991Z,102287.04
2019-03-29T20:38:37.601Z,102287.91
2019-03-29T20:40:46.458Z,102290.54
2019-03-29T20:42:53.364Z,102284.84
2019-03-29T20:45:00.836Z,102282.22
2019-03-29T20:47:08.376Z,102280.94
2019-03-29T20:49:15.126Z,102272.61
2019-03-29T20:51:22.184Z,102277.43
2019-03-29T20:53:31.617Z,102274.36
2019-03-29T20:55:39.077Z,102269.14
2019-03-29T20:57:46.011Z,102269.58
2019-03-29T20:59:52.955Z,102265.64
2019-03-29T21:02:00.005Z,102270.45
2019-03-29T21:04:08.404Z,102263.03
2019-03-29T21:06:15.475Z,102264.34
2019-03-29T21:08:22.524Z,102263.03
2019-03-29T21:10:29.391Z,102259.56
2019-03-29T21:12:36.054Z,102255.62
2019-03-29T21:14:43.111Z,102258.67
2019-03-29T21:16:49.764Z,102261.31
2019-03-29T21:18:57.284Z,102255.17
2019-03-29T21:21:05.162Z,102254.73
2019-03-29T21:23:12.005Z,102250.39
2019-03-29T21:25:19.435Z,102261.77
2019-03-29T21:27:26.264Z,102252.14
2019-03-29T21:29:33.225Z,102246.45
2019-03-29T21:31:40.422Z,102246.89
2019-03-29T21:33:48.521Z,102249.48
2019-03-29T21:35:56.546Z,102249.95
2019-03-29T21:38:03.215Z,102243.38
2019-03-29T21:40:11.524Z,102237.69
2019-03-29T21:42:18.561Z,102237.72
2019-03-29T21:44:25.745Z,102235.12
2019-03-29T21:46:34.484Z,102230.33
2019-03-29T21:48:41.675Z,102231.64
2019-03-29T21:50:50.352Z,102230.36
2019-03-29T21:52:57.359Z,102228.60
2019-03-29T21:55:05.050Z,102229.04
2019-03-29T21:57:13.162Z,102222.51
2019-03-29T21:59:20.740Z,102230.82
2019-03-29T22:01:27.301Z,102232.13
2019-03-29T22:03:33.563Z,102226.87
2019-03-29T22:05:41.791Z,102224.70
2019-03-29T22:07:49.782Z,102224.69
2019-03-29T22:09:56.151Z,102219.44
2019-03-29T22:12:03.214Z,102219.46
2019-03-29T22:14:09.780Z,102222.55
2019-03-29T22:16:16.217Z,102226.93
2019-03-29T22:18:36.846Z,102224.30
2019-03-29T22:20:31.223Z,102225.17
2019-03-29T22:22:38.328Z,102217.77
2019-03-29T22:24:45.182Z,102221.23
2019-03-29T22:26:53.592Z,102220.36
2019-03-29T22:29:00.365Z,102225.17
2019-03-29T22:31:06.719Z,102228.23
2019-03-29T22:33:13.292Z,102225.17
2019-03-29T22:35:19.652Z,102216.89
2019-03-29T22:37:26.351Z,102220.39
2019-03-29T22:39:33.003Z,102217.30
2019-03-29T22:41:39.563Z,102213.36
2019-03-29T22:43:46.131Z,102217.30
2019-03-29T22:45:52.592Z,102215.96
2019-03-29T22:47:59.154Z,102215.09
2019-03-29T22:50:08.092Z,102213.80
2019-03-29T22:52:14.432Z,102210.30
2019-03-29T22:54:20.812Z,102213.37
2019-03-29T22:56:27.263Z,102214.70
2019-03-29T22:58:33.733Z,102210.73
2019-03-29T23:00:47.769Z,102212.47
2019-03-29T23:02:54.534Z,102211.56
2019-03-29T23:05:03.073Z,102209.34
2019-03-29T23:07:09.733Z,102204.50
2019-03-29T23:09:18.017Z,102209.33
2019-03-29T23:11:24.821Z,102207.95
2019-03-29T23:13:31.285Z,102206.20
2019-03-29T23:15:37.854Z,102212.80
2019-03-29T23:17:44.313Z,102209.70
2019-03-29T23:19:50.885Z,102205.33
2019-03-29T23:21:57.654Z,102201.39
2019-03-29T23:24:04.114Z,102203.60
2019-03-29T23:26:10.804Z,102202.29
2019-03-29T23:28:17.343Z,102208.86
2019-03-29T23:30:24.186Z,102199.23
2019-03-29T23:32:30.594Z,102204.92
2019-03-29T23:34:37.176Z,102197.06
2019-03-29T23:36:43.621Z,102194.88
2019-03-29T23:38:50.405Z,102198.81
2019-03-29T23:40:56.774Z,102194.44
2019-03-29T23:43:03.225Z,102195.31
2019-03-29T23:45:09.894Z,102190.97
2019-03-29T23:47:17.794Z,102199.28
2019-03-29T23:49:24.054Z,102197.53
2019-03-29T23:51:30.623Z,102195.80
2019-03-29T23:53:38.323Z,102193.62
2019-03-29T23:55:44.784Z,102197.55
2019-03-29T23:57:51.565Z,102194.93
2019-03-29T23:59:57.813Z,102189.23
